Bf Esperanza — V2BR8 — position and weather

sailwx.info

Track history (hours):
 
Tides and Currents Weather Stations Pressure Air Temp Water Temp Dewpoint Dewpoint Depression Visibility Wind Speed Wind Dir Waves Ship Positions

Bf Esperanza

Last reported at 2017-Jun-28 16:58 UTC. Time now 2017-Jun-28 17:25 UTC.
Position N 59°44' E 010°14'.

Length 135 m; draft 8.1 m.

Type: Ship (hazmat cat A). MMSI: 304907000.

Date/timePositionNaut miles runAvg speedWind from/ knotsBaromVisibWave heightAir tempDewpointWater temp
2017-Jun-28 16:58N 59°44' E 010°14'0 0.0
2017-Jun-28 16:28N 59°44' E 010°14'0 0.0
2017-Jun-28 16:00N 59°44' E 010°14'0 0.0
2017-Jun-28 15:30N 59°44' E 010°14'0 0.0
2017-Jun-28 15:00N 59°44' E 010°14'0 0.0
2017-Jun-28 13:59N 59°44' E 010°14'0 0.0
2017-Jun-28 13:29N 59°44' E 010°14'0 0.0
2017-Jun-28 12:59N 59°44' E 010°14'0 0.0
2017-Jun-28 12:29N 59°44' E 010°14'0 0.0
2017-Jun-28 11:59N 59°44' E 010°14'0 0.0
2017-Jun-28 11:28N 59°44' E 010°14'0 0.0
2017-Jun-28 10:58N 59°44' E 010°14'0 0.0
2017-Jun-28 10:28N 59°44' E 010°14'0 0.0
2017-Jun-28 09:58N 59°44' E 010°14'0 0.0
2017-Jun-28 09:28N 59°44' E 010°14'0 0.0
2017-Jun-28 09:00N 59°44' E 010°14'0 0.0
2017-Jun-28 08:30N 59°44' E 010°14'0 0.0
2017-Jun-28 08:00N 59°44' E 010°14'0 0.0
2017-Jun-28 07:30N 59°44' E 010°14'0 0.0
2017-Jun-28 06:59N 59°44' E 010°14'0 0.0
2017-Jun-28 06:29N 59°44' E 010°14'0 0.0
2017-Jun-28 05:59N 59°44' E 010°14'0 0.0
2017-Jun-28 05:29N 59°44' E 010°14'0 0.0
2017-Jun-28 05:00N 59°44' E 010°14'0 0.7
2017-Jun-28 04:30N 59°44' E 010°15'4 8.6
2017-Jun-28 04:00N 59°42' E 010°22'510.7
2017-Jun-28 03:30N 59°36' E 010°25'510.3
2017-Jun-28 03:00N 59°31' E 010°25'713.8
2017-Jun-28 02:31N 59°26' E 010°33'714.0
2017-Jun-28 02:00N 59°19' E 010°36'714.1
2017-Jun-28 01:30N 59°12' E 010°39'713.3
2017-Jun-28 01:00N 59°06' E 010°35'5 9.1
2017-Jun-28 00:30N 59°01' E 010°35'510.9
2017-Jun-28 00:00N 58°56' E 010°36'611.4
2017-Jun-27 23:30N 58°50' E 010°36'611.3
2017-Jun-27 23:00N 58°44' E 010°37'4 8.7
2017-Jun-27 22:30N 58°40' E 010°39'3 5.0
2017-Jun-27 22:00N 58°38' E 010°38'611.9
2017-Jun-27 21:30N 58°32' E 010°39'612.0
2017-Jun-27 21:00N 58°26' E 010°40'612.3
2017-Jun-27 20:29N 58°19' E 010°41'612.3
2017-Jun-27 20:00N 58°13' E 010°42'611.9
2017-Jun-27 19:29N 58°07' E 010°42'511.6
2017-Jun-27 19:00N 58°02' E 010°43'611.4
2017-Jun-27 18:30N 57°56' E 010°45'611.5
2017-Jun-27 18:00N 57°50' E 010°45'510.9
2017-Jun-27 17:30N 57°47' E 010°52'510.9
2017-Jun-27 17:00N 57°43' E 010°60'511.0
2017-Jun-27 16:30N 57°39' E 011°08'510.9
2017-Jun-27 16:00N 57°36' E 011°16'510.3
2017-Jun-27 15:30N 57°33' E 011°23'510.8
2017-Jun-27 15:00N 57°29' E 011°30'510.6
2017-Jun-27 14:30N 57°23' E 011°32'1511.4
2017-Jun-27 13:13N 57°09' E 011°39'311.4
2017-Jun-27 12:59N 57°07' E 011°40'4710.4
2017-Jun-27 08:28N 56°22' E 012°04'610.4
2017-Jun-27 07:52N 56°16' E 012°10'411.6
2017-Jun-27 07:30N 56°14' E 012°16'511.1
2017-Jun-27 07:00N 56°11' E 012°24'612.1
2017-Jun-27 06:30N 56°07' E 012°32'611.9
2017-Jun-27 06:00N 56°03' E 012°40'1 2.6
2017-Jun-27 05:28N 56°02' E 012°42'0 0.0
2017-Jun-27 04:58N 56°02' E 012°42'0 0.0
2017-Jun-27 04:28N 56°02' E 012°42'0 0.0
2017-Jun-27 03:58N 56°02' E 012°42'0 0.0
2017-Jun-27 03:28N 56°02' E 012°42'0 0.0
2017-Jun-27 03:00N 56°02' E 012°42'0 0.0
2017-Jun-27 02:30N 56°02' E 012°42'0 0.0
2017-Jun-27 02:00N 56°02' E 012°42'0 0.0
2017-Jun-27 01:30N 56°02' E 012°42'0 0.0
2017-Jun-27 01:00N 56°02' E 012°42'0 0.0
2017-Jun-27 00:29N 56°02' E 012°42'0 0.0
2017-Jun-26 23:59N 56°02' E 012°42'0 0.0
2017-Jun-26 23:29N 56°02' E 012°42'0 0.0
2017-Jun-26 22:59N 56°02' E 012°42'0 0.0
2017-Jun-26 22:28N 56°02' E 012°42'0 0.0
2017-Jun-26 21:58N 56°02' E 012°42'0 0.0
2017-Jun-26 21:28N 56°02' E 012°42'0 0.0
2017-Jun-26 20:58N 56°02' E 012°42'0 0.0
2017-Jun-26 20:28N 56°02' E 012°42'0 0.0
2017-Jun-26 20:00N 56°02' E 012°42'0 0.0
2017-Jun-26 19:30N 56°02' E 012°42'0 0.0
2017-Jun-26 19:00N 56°02' E 012°42'0 0.0
2017-Jun-26 18:30N 56°02' E 012°42'0 0.0
2017-Jun-26 18:00N 56°02' E 012°42'0 0.0
2017-Jun-26 17:29N 56°02' E 012°42'0 0.0
2017-Jun-26 16:59N 56°02' E 012°42'0 0.0
2017-Jun-26 16:29N 56°02' E 012°42'0 0.0
2017-Jun-26 15:59N 56°02' E 012°42'0 0.0
2017-Jun-26 15:30N 56°02' E 012°42'0 0.0
2017-Jun-26 14:58N 56°02' E 012°42'0 0.0
2017-Jun-26 14:28N 56°02' E 012°42'0 0.0
2017-Jun-26 13:28N 56°02' E 012°42'0 0.0
2017-Jun-26 13:00N 56°02' E 012°42'0 0.0
2017-Jun-26 12:30N 56°02' E 012°42'0 0.0
2017-Jun-26 12:00N 56°02' E 012°42'0 0.0
2017-Jun-26 11:30N 56°02' E 012°42'0 0.0
2017-Jun-26 10:59N 56°02' E 012°42'0 0.0
2017-Jun-26 10:29N 56°02' E 012°42'0 0.0
2017-Jun-26 09:59N 56°02' E 012°42'0 0.0
2017-Jun-26 09:29N 56°02' E 012°42'0 0.0
2017-Jun-26 08:59N 56°02' E 012°42'0 0.0
2017-Jun-26 08:28N 56°02' E 012°42'0 0.0
2017-Jun-26 07:58N 56°02' E 012°42'0 0.0
2017-Jun-26 07:28N 56°02' E 012°42'0 0.0
2017-Jun-26 06:58N 56°02' E 012°42'0 0.0
2017-Jun-26 06:28N 56°02' E 012°42'0 0.0
2017-Jun-26 06:00N 56°02' E 012°42'0 0.0
2017-Jun-26 05:30N 56°02' E 012°42'0 0.0
2017-Jun-26 05:00N 56°02' E 012°42'0 0.0
2017-Jun-26 04:30N 56°02' E 012°42'0 0.0
2017-Jun-26 03:59N 56°02' E 012°42'0 0.0
2017-Jun-26 03:29N 56°02' E 012°42'0 0.0
2017-Jun-26 02:59N 56°02' E 012°42'0 0.0
2017-Jun-26 02:29N 56°02' E 012°42'0 0.0
2017-Jun-26 01:59N 56°02' E 012°42'0 0.0
2017-Jun-26 01:28N 56°02' E 012°42'0 0.0
2017-Jun-26 00:58N 56°02' E 012°42'0 0.0
2017-Jun-26 00:28N 56°02' E 012°42'0 0.0
2017-Jun-25 23:58N 56°02' E 012°42'0 0.0
2017-Jun-25 23:31N 56°02' E 012°42'0 0.0
2017-Jun-25 23:00N 56°02' E 012°42'0 0.0
2017-Jun-25 22:30N 56°02' E 012°42'2 3.4
2017-Jun-25 22:00N 56°00' E 012°41'3 5.9
2017-Jun-25 21:30N 55°57' E 012°41'0 0.6
2017-Jun-25 21:00N 55°57' E 012°41'0 0.0
2017-Jun-25 20:29N 55°57' E 012°41'0 0.0
2017-Jun-25 19:59N 55°57' E 012°41'0 0.0
2017-Jun-25 19:29N 55°57' E 012°41'0 0.0
2017-Jun-25 18:59N 55°57' E 012°41'0 0.0
2017-Jun-25 18:28N 55°57' E 012°41'0 0.0
2017-Jun-25 17:58N 55°57' E 012°41'0 0.0
2017-Jun-25 17:28N 55°57' E 012°41'0 0.0
2017-Jun-25 16:58N 55°57' E 012°41'0 0.0
2017-Jun-25 16:28N 55°57' E 012°41'0 0.0
2017-Jun-25 16:00N 55°57' E 012°41'0 0.0
2017-Jun-25 15:30N 55°57' E 012°41'0 0.0
2017-Jun-25 15:00N 55°57' E 012°41'1 0.7
2017-Jun-25 14:00N 55°58' E 012°41'713.2
2017-Jun-25 13:30N 56°04' E 012°37'714.7
2017-Jun-25 13:00N 56°08' E 012°27'714.1
2017-Jun-25 12:30N 56°12' E 012°16'613.2
2017-Jun-25 12:00N 56°16' E 012°06'71 8.9
2017-Jun-25 04:01N 55°13' E 011°06'010.9
2017-Jun-25 04:00N 55°13' E 011°06'612.4
2017-Jun-25 03:30N 55°07' E 011°03'713.2
2017-Jun-25 03:00N 55°01' E 011°02'612.0
2017-Jun-25 02:30N 54°56' E 010°56'611.7
2017-Jun-25 02:00N 54°50' E 010°53'713.2
2017-Jun-25 01:30N 54°44' E 010°53'612.8
2017-Jun-25 01:00N 54°39' E 010°46'714.0
2017-Jun-25 00:30N 54°34' E 010°37'714.3
2017-Jun-25 00:00N 54°31' E 010°26'612.1
2017-Jun-24 23:30N 54°28' E 010°17'612.0
2017-Jun-24 23:00N 54°23' E 010°12'2 4.6
2017-Jun-24 22:30N 54°22' E 010°08'0 0.0
2017-Jun-24 22:00N 54°22' E 010°08'1 2.4
2017-Jun-24 21:30N 54°22' E 010°06'0 0.0
2017-Jun-24 21:00N 54°22' E 010°06'0 0.4
2017-Jun-24 20:30N 54°22' E 010°06'3 5.0
2017-Jun-24 20:00N 54°22' E 010°02'3 5.3
2017-Jun-24 19:30N 54°20' E 009°58'3 6.8
2017-Jun-24 19:00N 54°22' E 009°52'4 7.9
2017-Jun-24 18:30N 54°21' E 009°46'8 6.2
2017-Jun-24 17:13N 54°15' E 009°37'2 8.1
2017-Jun-24 16:59N 54°13' E 009°35'4 8.6
2017-Jun-24 16:30N 54°11' E 009°29'5 8.0
2017-Jun-24 15:54N 54°09' E 009°22'0 0.2
2017-Jun-24 15:30N 54°09' E 009°22'4 7.1
2017-Jun-24 14:55N 54°05' E 009°19'8 8.3
2017-Jun-24 14:00N 53°58' E 009°15'1 3.0
2017-Jun-24 13:31N 53°57' E 009°14'3 5.3
2017-Jun-24 13:01N 53°55' E 009°11'2 3.1
2017-Jun-24 12:31N 53°54' E 009°09'0 0.0
2017-Jun-24 12:00N 53°54' E 009°09'1 2.7
2017-Jun-24 11:30N 53°53' E 009°07'0 0.5
2017-Jun-24 10:59N 53°53' E 009°06'0 0.0
2017-Jun-24 10:28N 53°53' E 009°06'0 0.0
2017-Jun-24 09:58N 53°53' E 009°06'0 0.0
2017-Jun-24 09:28N 53°53' E 009°06'0 0.0
2017-Jun-24 08:58N 53°53' E 009°06'0 0.0
2017-Jun-24 08:24N 53°53' E 009°06'0 0.0
2017-Jun-24 08:01N 53°53' E 009°06'5 9.3
2017-Jun-24 07:30N 53°51' E 008°59'612.8
2017-Jun-24 07:01N 53°50' E 008°48'510.3
2017-Jun-24 06:30N 53°54' E 008°42'611.7
2017-Jun-24 06:00N 53°58' E 008°34'612.7
2017-Jun-24 05:30N 53°59' E 008°24'713.6
2017-Jun-24 05:00N 53°60' E 008°12'714.2
2017-Jun-24 04:30N 53°58' E 008°00'713.5
2017-Jun-24 04:00N 53°53' E 007°53'613.0
2017-Jun-24 03:30N 53°51' E 008°03'816.4
2017-Jun-24 03:00N 53°45' E 008°13'816.8
2017-Jun-24 02:30N 53°39' E 008°24'611.2
2017-Jun-24 01:59N 53°35' E 008°31'0 0.2
2017-Jun-24 01:28N 53°35' E 008°31'0 0.0
2017-Jun-24 00:58N 53°35' E 008°31'0 0.0
2017-Jun-24 00:28N 53°35' E 008°31'0 0.0
2017-Jun-23 23:58N 53°35' E 008°31'0 0.0
2017-Jun-23 23:27N 53°35' E 008°31'0 0.0
2017-Jun-23 23:00N 53°35' E 008°31'0 0.0
2017-Jun-23 22:30N 53°35' E 008°31'0 0.0
2017-Jun-23 22:00N 53°35' E 008°31'0 0.0
2017-Jun-23 21:30N 53°35' E 008°31'0 0.0
2017-Jun-23 20:59N 53°35' E 008°31'0 0.0
2017-Jun-23 20:29N 53°35' E 008°31'0 0.0
2017-Jun-23 19:59N 53°35' E 008°31'0 0.0
2017-Jun-23 19:29N 53°35' E 008°31'0 0.0
2017-Jun-23 18:59N 53°35' E 008°31'0 0.0
2017-Jun-23 18:28N 53°35' E 008°31'0 0.0
2017-Jun-23 17:58N 53°35' E 008°31'0 0.0
2017-Jun-23 17:28N 53°35' E 008°31'0 0.0
2017-Jun-23 16:58N 53°35' E 008°31'0 0.0
2017-Jun-23 16:30N 53°35' E 008°31'0 0.0
2017-Jun-23 16:00N 53°35' E 008°31'0 0.0
2017-Jun-23 15:30N 53°35' E 008°31'0 0.0
2017-Jun-23 15:00N 53°35' E 008°31'0 0.0
2017-Jun-23 13:59N 53°35' E 008°31'0 0.0
2017-Jun-23 13:29N 53°35' E 008°31'0 0.0
2017-Jun-23 12:59N 53°35' E 008°31'0 0.0
2017-Jun-23 12:29N 53°35' E 008°31'0 0.0
2017-Jun-23 11:59N 53°35' E 008°31'0 0.0
2017-Jun-23 11:28N 53°35' E 008°31'0 0.1
2017-Jun-23 10:58N 53°35' E 008°32'0 0.0
2017-Jun-23 10:28N 53°35' E 008°32'0 0.0
2017-Jun-23 09:58N 53°35' E 008°32'0 0.0
2017-Jun-23 09:30N 53°35' E 008°32'0 0.0
2017-Jun-23 09:00N 53°35' E 008°32'0 0.0
2017-Jun-23 08:27N 53°35' E 008°32'0 0.0
2017-Jun-23 08:00N 53°35' E 008°32'0 0.0
2017-Jun-23 07:30N 53°35' E 008°32'0 0.0
2017-Jun-23 06:59N 53°35' E 008°32'0 0.1
2017-Jun-23 06:29N 53°35' E 008°31'0 0.0
2017-Jun-23 05:59N 53°35' E 008°31'0 0.0
2017-Jun-23 05:30N 53°35' E 008°31'0 0.0
2017-Jun-23 05:00N 53°35' E 008°31'2 3.6
2017-Jun-23 04:30N 53°37' E 008°29'611.8
2017-Jun-23 04:00N 53°41' E 008°22'612.1
2017-Jun-23 03:30N 53°44' E 008°14'611.9
2017-Jun-23 03:00N 53°49' E 008°07'612.9
2017-Jun-23 02:30N 53°51' E 007°57'6 6.7
2017-Jun-23 01:40N 53°55' E 007°50'0 0.5
2017-Jun-23 01:28N 53°55' E 007°50'0 0.0
2017-Jun-23 00:58N 53°55' E 007°50'0 0.0
2017-Jun-22 22:45N 53°55' E 007°50'0 0.0
2017-Jun-22 22:24N 53°55' E 007°50'0 0.0
2017-Jun-22 22:00N 53°55' E 007°50'0 0.2
2017-Jun-22 21:21N 53°55' E 007°50'0 0.0
2017-Jun-22 20:54N 53°55' E 007°50'0 0.0
2017-Jun-22 19:54N 53°55' E 007°50'0 0.0
2017-Jun-22 19:30N 53°55' E 007°50'0 0.0
2017-Jun-22 18:59N 53°55' E 007°50'0 0.0
2017-Jun-22 18:29N 53°55' E 007°50'0 0.0
2017-Jun-22 17:59N 53°55' E 007°50'0 0.1
2017-Jun-22 17:29N 53°55' E 007°50'0 0.0
2017-Jun-22 16:58N 53°55' E 007°50'0 0.2
2017-Jun-22 16:28N 53°55' E 007°50'0 0.1
2017-Jun-22 15:58N 53°55' E 007°50'0 0.1
2017-Jun-22 12:57N 53°55' E 007°50'0 0.1
2017-Jun-22 12:30N 53°55' E 007°50'0 0.0
2017-Jun-22 11:56N 53°55' E 007°50'0 0.0
2017-Jun-22 11:29N 53°55' E 007°50'0 0.0
2017-Jun-22 10:59N 53°55' E 007°50'0 0.0
2017-Jun-22 10:29N 53°55' E 007°50'0 0.1
2017-Jun-22 09:58N 53°55' E 007°50'0 0.0
2017-Jun-22 09:22N 53°55' E 007°50'0 0.2
2017-Jun-22 08:10N 53°55' E 007°50'0 0.5
2017-Jun-22 07:58N 53°55' E 007°50'0 0.0
2017-Jun-22 07:30N 53°55' E 007°50'0 0.0
2017-Jun-22 06:57N 53°55' E 007°50'0 0.0
2017-Jun-22 06:30N 53°55' E 007°50'0 0.0
2017-Jun-22 06:00N 53°55' E 007°50'0 0.0
2017-Jun-22 05:30N 53°55' E 007°50'0 0.0
2017-Jun-22 04:59N 53°55' E 007°50'0 0.3
2017-Jun-22 04:29N 53°55' E 007°50'0 0.2
2017-Jun-22 03:59N 53°55' E 007°50'0 0.0
2017-Jun-22 03:29N 53°55' E 007°50'0 0.0
2017-Jun-22 02:49N 53°55' E 007°50'0 0.0
2017-Jun-22 02:28N 53°55' E 007°50'0 0.0
2017-Jun-22 01:55N 53°55' E 007°50'0 0.0
2017-Jun-22 01:25N 53°55' E 007°50'0 0.0
2017-Jun-22 00:58N 53°55' E 007°50'0 0.0
2017-Jun-22 00:30N 53°55' E 007°50'0 0.0
2017-Jun-21 23:57N 53°55' E 007°50'0 0.0
2017-Jun-21 23:30N 53°55' E 007°50'0 0.0
2017-Jun-21 22:57N 53°55' E 007°50'0 0.0
2017-Jun-21 22:27N 53°55' E 007°50'0 0.0
2017-Jun-21 21:47N 53°55' E 007°50'0 0.2
2017-Jun-21 21:23N 53°55' E 007°50'0 0.2
2017-Jun-21 20:59N 53°55' E 007°50'0 0.0
2017-Jun-21 20:29N 53°55' E 007°50'0 0.0
2017-Jun-21 19:55N 53°55' E 007°50'0 0.0
2017-Jun-21 19:28N 53°55' E 007°50'0 0.0
2017-Jun-21 16:24N 53°55' E 007°50'0 0.1
2017-Jun-21 15:42N 53°55' E 007°50'0 0.0
2017-Jun-21 15:23N 53°55' E 007°50'7 1.7
2017-Jun-21 11:11N 54°01' E 007°56'315.2
2017-Jun-21 11:00N 54°01' E 008°01'714.8
2017-Jun-21 10:30N 54°00' E 008°13'714.6
2017-Jun-21 10:00N 53°59' E 008°26'715.0
2017-Jun-21 09:31N 53°57' E 008°38'612.8
2017-Jun-21 09:00N 53°52' E 008°44'611.6
2017-Jun-21 08:30N 53°51' E 008°54'612.1
2017-Jun-21 08:00N 53°52' E 009°04'3 6.6
2017-Jun-21 07:30N 53°54' E 009°09'0 0.0
2017-Jun-21 07:00N 53°54' E 009°09'1 1.2
2017-Jun-21 06:30N 53°54' E 009°09'1 1.3
2017-Jun-21 06:00N 53°54' E 009°10'3 5.0
2017-Jun-21 05:30N 53°56' E 009°13'3 6.6
2017-Jun-21 05:00N 53°59' E 009°17'3 6.8
2017-Jun-21 04:30N 54°02' E 009°18'24 5.3
2017-Jun-21 00:01N 54°20' E 009°45'0 6.7
2017-Jun-20 23:57N 54°21' E 009°45'3 6.7
2017-Jun-20 23:29N 54°22' E 009°50'3 6.7
2017-Jun-20 23:00N 54°21' E 009°55'3 6.4
2017-Jun-20 22:30N 54°21' E 010°01'4 6.4
2017-Jun-20 21:53N 54°22' E 010°07'1 2.0
2017-Jun-20 21:30N 54°22' E 010°09'0 0.0
2017-Jun-20 21:01N 54°22' E 010°09'1 2.5
2017-Jun-20 20:31N 54°22' E 010°11'5 9.4
2017-Jun-20 20:00N 54°27' E 010°14'710.7
2017-Jun-20 19:21N 54°31' E 010°23'3 8.1
2017-Jun-20 19:00N 54°34' E 010°25'0 0.3
2017-Jun-20 18:24N 54°34' E 010°25'1 0.1
2017-Jun-20 05:37N 54°33' E 010°27'1 7.4
2017-Jun-20 05:31N 54°33' E 010°28'611.1
2017-Jun-20 05:00N 54°35' E 010°37'613.0
2017-Jun-20 04:30N 54°39' E 010°46'612.0
2017-Jun-20 04:00N 54°44' E 010°52'612.7
2017-Jun-20 03:30N 54°50' E 010°52'612.2
2017-Jun-20 03:01N 54°56' E 010°55'612.2
2017-Jun-20 02:30N 55°01' E 011°01'713.5
2017-Jun-20 01:59N 55°08' E 011°02'612.3
2017-Jun-20 01:30N 55°14' E 011°06'712.8
2017-Jun-20 00:58N 55°20' E 011°02'73 9.9
2017-Jun-19 17:39N 56°25' E 012°02'313.8
2017-Jun-19 17:27N 56°22' E 012°03'713.1
2017-Jun-19 16:56N 56°16' E 012°10'614.1
2017-Jun-19 16:30N 56°13' E 012°19'714.2
2017-Jun-19 16:00N 56°09' E 012°29'714.6
2017-Jun-19 15:30N 56°04' E 012°39'2 4.7
2017-Jun-19 15:00N 56°02' E 012°42'0 0.1
2017-Jun-19 13:59N 56°02' E 012°42'0 0.0
2017-Jun-19 13:29N 56°02' E 012°42'0 0.0
2017-Jun-19 12:59N 56°02' E 012°42'0 0.0
2017-Jun-19 12:29N 56°02' E 012°42'0 0.0
2017-Jun-19 11:58N 56°02' E 012°42'0 0.0
2017-Jun-19 11:28N 56°02' E 012°42'0 0.0
2017-Jun-19 10:55N 56°02' E 012°42'0 0.0
2017-Jun-19 10:28N 56°02' E 012°42'0 0.0
2017-Jun-19 10:00N 56°02' E 012°42'0 0.0
2017-Jun-19 09:30N 56°02' E 012°42'0 0.0
2017-Jun-19 09:00N 56°02' E 012°42'0 0.0
2017-Jun-19 08:30N 56°02' E 012°42'0 0.0
2017-Jun-19 08:00N 56°02' E 012°42'0 0.0
2017-Jun-19 07:29N 56°02' E 012°42'0 0.0
2017-Jun-19 06:59N 56°02' E 012°42'0 0.0
2017-Jun-19 06:29N 56°02' E 012°42'0 0.0
2017-Jun-19 05:59N 56°02' E 012°42'0 0.0
2017-Jun-19 05:29N 56°02' E 012°42'0 0.0
2017-Jun-19 04:58N 56°02' E 012°42'0 0.0
2017-Jun-19 04:28N 56°02' E 012°42'0 0.0
2017-Jun-19 03:58N 56°02' E 012°42'0 0.0
2017-Jun-19 03:28N 56°02' E 012°42'0 0.1
2017-Jun-19 03:00N 56°02' E 012°41'0 0.0
2017-Jun-19 02:30N 56°02' E 012°41'0 0.0
2017-Jun-19 02:00N 56°02' E 012°41'0 0.0
2017-Jun-19 01:30N 56°02' E 012°41'0 0.0
2017-Jun-19 01:00N 56°02' E 012°41'0 0.0
2017-Jun-19 00:29N 56°02' E 012°41'0 0.0
2017-Jun-18 23:59N 56°02' E 012°41'0 0.0
2017-Jun-18 23:29N 56°02' E 012°41'0 0.0
2017-Jun-18 22:59N 56°02' E 012°41'0 0.0
2017-Jun-18 22:28N 56°02' E 012°41'0 0.0
2017-Jun-18 21:58N 56°02' E 012°41'0 0.0
2017-Jun-18 21:28N 56°02' E 012°41'0 0.0
2017-Jun-18 20:58N 56°02' E 012°41'0 0.0
2017-Jun-18 20:25N 56°02' E 012°41'0 0.0
2017-Jun-18 20:00N 56°02' E 012°41'0 0.0
2017-Jun-18 19:30N 56°02' E 012°41'0 0.0
2017-Jun-18 19:00N 56°02' E 012°41'0 0.0
2017-Jun-18 18:24N 56°02' E 012°41'0 0.0
2017-Jun-18 18:00N 56°02' E 012°41'0 0.0
2017-Jun-18 17:29N 56°02' E 012°41'0 0.0
2017-Jun-18 16:59N 56°02' E 012°41'  
Track history (hours):
 
Tides and Currents Weather Stations Pressure Air Temp Water Temp Dewpoint Dewpoint Depression Visibility Wind Speed Wind Dir Waves Ship Positions

Bf Esperanza

Last reported at 2017-Jun-28 16:58 UTC. Time now 2017-Jun-28 17:25 UTC.
Position N 59°44' E 010°14'.

Length 135 m; draft 8.1 m.

Type: Ship (hazmat cat A). MMSI: 304907000.

Date/timePositionNaut miles runAvg speedWind from/ knotsBaromVisibWave heightAir tempDewpointWater temp
2017-Jun-28 16:58N 59°44' E 010°14'0 0.0
2017-Jun-28 16:28N 59°44' E 010°14'0 0.0
2017-Jun-28 16:00N 59°44' E 010°14'0 0.0
2017-Jun-28 15:30N 59°44' E 010°14'0 0.0
2017-Jun-28 15:00N 59°44' E 010°14'0 0.0
2017-Jun-28 13:59N 59°44' E 010°14'0 0.0
2017-Jun-28 13:29N 59°44' E 010°14'0 0.0
2017-Jun-28 12:59N 59°44' E 010°14'0 0.0
2017-Jun-28 12:29N 59°44' E 010°14'0 0.0
2017-Jun-28 11:59N 59°44' E 010°14'0 0.0
2017-Jun-28 11:28N 59°44' E 010°14'0 0.0
2017-Jun-28 10:58N 59°44' E 010°14'0 0.0
2017-Jun-28 10:28N 59°44' E 010°14'0 0.0
2017-Jun-28 09:58N 59°44' E 010°14'0 0.0
2017-Jun-28 09:28N 59°44' E 010°14'0 0.0
2017-Jun-28 09:00N 59°44' E 010°14'0 0.0
2017-Jun-28 08:30N 59°44' E 010°14'0 0.0
2017-Jun-28 08:00N 59°44' E 010°14'0 0.0
2017-Jun-28 07:30N 59°44' E 010°14'0 0.0
2017-Jun-28 06:59N 59°44' E 010°14'0 0.0
2017-Jun-28 06:29N 59°44' E 010°14'0 0.0
2017-Jun-28 05:59N 59°44' E 010°14'0 0.0
2017-Jun-28 05:29N 59°44' E 010°14'0 0.0
2017-Jun-28 05:00N 59°44' E 010°14'0 0.7
2017-Jun-28 04:30N 59°44' E 010°15'4 8.6
2017-Jun-28 04:00N 59°42' E 010°22'510.7
2017-Jun-28 03:30N 59°36' E 010°25'510.3
2017-Jun-28 03:00N 59°31' E 010°25'713.8
2017-Jun-28 02:31N 59°26' E 010°33'714.0
2017-Jun-28 02:00N 59°19' E 010°36'714.1
2017-Jun-28 01:30N 59°12' E 010°39'713.3
2017-Jun-28 01:00N 59°06' E 010°35'5 9.1
2017-Jun-28 00:30N 59°01' E 010°35'510.9
2017-Jun-28 00:00N 58°56' E 010°36'611.4
2017-Jun-27 23:30N 58°50' E 010°36'611.3
2017-Jun-27 23:00N 58°44' E 010°37'4 8.7
2017-Jun-27 22:30N 58°40' E 010°39'3 5.0
2017-Jun-27 22:00N 58°38' E 010°38'611.9
2017-Jun-27 21:30N 58°32' E 010°39'612.0
2017-Jun-27 21:00N 58°26' E 010°40'612.3
2017-Jun-27 20:29N 58°19' E 010°41'612.3
2017-Jun-27 20:00N 58°13' E 010°42'611.9
2017-Jun-27 19:29N 58°07' E 010°42'511.6
2017-Jun-27 19:00N 58°02' E 010°43'611.4
2017-Jun-27 18:30N 57°56' E 010°45'611.5
2017-Jun-27 18:00N 57°50' E 010°45'510.9
2017-Jun-27 17:30N 57°47' E 010°52'510.9
2017-Jun-27 17:00N 57°43' E 010°60'511.0
2017-Jun-27 16:30N 57°39' E 011°08'510.9
2017-Jun-27 16:00N 57°36' E 011°16'510.3
2017-Jun-27 15:30N 57°33' E 011°23'510.8
2017-Jun-27 15:00N 57°29' E 011°30'510.6
2017-Jun-27 14:30N 57°23' E 011°32'1511.4
2017-Jun-27 13:13N 57°09' E 011°39'311.4
2017-Jun-27 12:59N 57°07' E 011°40'4710.4
2017-Jun-27 08:28N 56°22' E 012°04'610.4
2017-Jun-27 07:52N 56°16' E 012°10'411.6
2017-Jun-27 07:30N 56°14' E 012°16'511.1
2017-Jun-27 07:00N 56°11' E 012°24'612.1
2017-Jun-27 06:30N 56°07' E 012°32'611.9
2017-Jun-27 06:00N 56°03' E 012°40'1 2.6
2017-Jun-27 05:28N 56°02' E 012°42'0 0.0
2017-Jun-27 04:58N 56°02' E 012°42'0 0.0
2017-Jun-27 04:28N 56°02' E 012°42'0 0.0
2017-Jun-27 03:58N 56°02' E 012°42'0 0.0
2017-Jun-27 03:28N 56°02' E 012°42'0 0.0
2017-Jun-27 03:00N 56°02' E 012°42'0 0.0
2017-Jun-27 02:30N 56°02' E 012°42'0 0.0
2017-Jun-27 02:00N 56°02' E 012°42'0 0.0
2017-Jun-27 01:30N 56°02' E 012°42'0 0.0
2017-Jun-27 01:00N 56°02' E 012°42'0 0.0
2017-Jun-27 00:29N 56°02' E 012°42'0 0.0
2017-Jun-26 23:59N 56°02' E 012°42'0 0.0
2017-Jun-26 23:29N 56°02' E 012°42'0 0.0
2017-Jun-26 22:59N 56°02' E 012°42'0 0.0
2017-Jun-26 22:28N 56°02' E 012°42'0 0.0
2017-Jun-26 21:58N 56°02' E 012°42'0 0.0
2017-Jun-26 21:28N 56°02' E 012°42'0 0.0
2017-Jun-26 20:58N 56°02' E 012°42'0 0.0
2017-Jun-26 20:28N 56°02' E 012°42'0 0.0
2017-Jun-26 20:00N 56°02' E 012°42'0 0.0
2017-Jun-26 19:30N 56°02' E 012°42'0 0.0
2017-Jun-26 19:00N 56°02' E 012°42'0 0.0
2017-Jun-26 18:30N 56°02' E 012°42'0 0.0
2017-Jun-26 18:00N 56°02' E 012°42'0 0.0
2017-Jun-26 17:29N 56°02' E 012°42'0 0.0
2017-Jun-26 16:59N 56°02' E 012°42'0 0.0
2017-Jun-26 16:29N 56°02' E 012°42'0 0.0
2017-Jun-26 15:59N 56°02' E 012°42'0 0.0
2017-Jun-26 15:30N 56°02' E 012°42'0 0.0
2017-Jun-26 14:58N 56°02' E 012°42'0 0.0
2017-Jun-26 14:28N 56°02' E 012°42'0 0.0
2017-Jun-26 13:28N 56°02' E 012°42'0 0.0
2017-Jun-26 13:00N 56°02' E 012°42'0 0.0
2017-Jun-26 12:30N 56°02' E 012°42'0 0.0
2017-Jun-26 12:00N 56°02' E 012°42'0 0.0
2017-Jun-26 11:30N 56°02' E 012°42'0 0.0
2017-Jun-26 10:59N 56°02' E 012°42'0 0.0
2017-Jun-26 10:29N 56°02' E 012°42'0 0.0
2017-Jun-26 09:59N 56°02' E 012°42'0 0.0
2017-Jun-26 09:29N 56°02' E 012°42'0 0.0
2017-Jun-26 08:59N 56°02' E 012°42'0 0.0
2017-Jun-26 08:28N 56°02' E 012°42'0 0.0
2017-Jun-26 07:58N 56°02' E 012°42'0 0.0
2017-Jun-26 07:28N 56°02' E 012°42'0 0.0
2017-Jun-26 06:58N 56°02' E 012°42'0 0.0
2017-Jun-26 06:28N 56°02' E 012°42'0 0.0
2017-Jun-26 06:00N 56°02' E 012°42'0 0.0
2017-Jun-26 05:30N 56°02' E 012°42'0 0.0
2017-Jun-26 05:00N 56°02' E 012°42'0 0.0
2017-Jun-26 04:30N 56°02' E 012°42'0 0.0
2017-Jun-26 03:59N 56°02' E 012°42'0 0.0
2017-Jun-26 03:29N 56°02' E 012°42'0 0.0
2017-Jun-26 02:59N 56°02' E 012°42'0 0.0
2017-Jun-26 02:29N 56°02' E 012°42'0 0.0
2017-Jun-26 01:59N 56°02' E 012°42'0 0.0
2017-Jun-26 01:28N 56°02' E 012°42'0 0.0
2017-Jun-26 00:58N 56°02' E 012°42'0 0.0
2017-Jun-26 00:28N 56°02' E 012°42'0 0.0
2017-Jun-25 23:58N 56°02' E 012°42'0 0.0
2017-Jun-25 23:31N 56°02' E 012°42'0 0.0
2017-Jun-25 23:00N 56°02' E 012°42'0 0.0
2017-Jun-25 22:30N 56°02' E 012°42'2 3.4
2017-Jun-25 22:00N 56°00' E 012°41'3 5.9
2017-Jun-25 21:30N 55°57' E 012°41'0 0.6
2017-Jun-25 21:00N 55°57' E 012°41'0 0.0
2017-Jun-25 20:29N 55°57' E 012°41'0 0.0
2017-Jun-25 19:59N 55°57' E 012°41'0 0.0
2017-Jun-25 19:29N 55°57' E 012°41'0 0.0
2017-Jun-25 18:59N 55°57' E 012°41'0 0.0
2017-Jun-25 18:28N 55°57' E 012°41'0 0.0
2017-Jun-25 17:58N 55°57' E 012°41'0 0.0
2017-Jun-25 17:28N 55°57' E 012°41'0 0.0
2017-Jun-25 16:58N 55°57' E 012°41'0 0.0
2017-Jun-25 16:28N 55°57' E 012°41'0 0.0
2017-Jun-25 16:00N 55°57' E 012°41'0 0.0
2017-Jun-25 15:30N 55°57' E 012°41'0 0.0
2017-Jun-25 15:00N 55°57' E 012°41'1 0.7
2017-Jun-25 14:00N 55°58' E 012°41'713.2
2017-Jun-25 13:30N 56°04' E 012°37'714.7
2017-Jun-25 13:00N 56°08' E 012°27'714.1
2017-Jun-25 12:30N 56°12' E 012°16'613.2
2017-Jun-25 12:00N 56°16' E 012°06'71 8.9
2017-Jun-25 04:01N 55°13' E 011°06'010.9
2017-Jun-25 04:00N 55°13' E 011°06'612.4
2017-Jun-25 03:30N 55°07' E 011°03'713.2
2017-Jun-25 03:00N 55°01' E 011°02'612.0
2017-Jun-25 02:30N 54°56' E 010°56'611.7
2017-Jun-25 02:00N 54°50' E 010°53'713.2
2017-Jun-25 01:30N 54°44' E 010°53'612.8
2017-Jun-25 01:00N 54°39' E 010°46'714.0
2017-Jun-25 00:30N 54°34' E 010°37'714.3
2017-Jun-25 00:00N 54°31' E 010°26'612.1
2017-Jun-24 23:30N 54°28' E 010°17'612.0
2017-Jun-24 23:00N 54°23' E 010°12'2 4.6
2017-Jun-24 22:30N 54°22' E 010°08'0 0.0
2017-Jun-24 22:00N 54°22' E 010°08'1 2.4
2017-Jun-24 21:30N 54°22' E 010°06'0 0.0
2017-Jun-24 21:00N 54°22' E 010°06'0 0.4
2017-Jun-24 20:30N 54°22' E 010°06'3 5.0
2017-Jun-24 20:00N 54°22' E 010°02'3 5.3
2017-Jun-24 19:30N 54°20' E 009°58'3 6.8
2017-Jun-24 19:00N 54°22' E 009°52'4 7.9
2017-Jun-24 18:30N 54°21' E 009°46'8 6.2
2017-Jun-24 17:13N 54°15' E 009°37'2 8.1
2017-Jun-24 16:59N 54°13' E 009°35'4 8.6
2017-Jun-24 16:30N 54°11' E 009°29'5 8.0
2017-Jun-24 15:54N 54°09' E 009°22'0 0.2
2017-Jun-24 15:30N 54°09' E 009°22'4 7.1
2017-Jun-24 14:55N 54°05' E 009°19'8 8.3
2017-Jun-24 14:00N 53°58' E 009°15'1 3.0
2017-Jun-24 13:31N 53°57' E 009°14'3 5.3
2017-Jun-24 13:01N 53°55' E 009°11'2 3.1
2017-Jun-24 12:31N 53°54' E 009°09'0 0.0
2017-Jun-24 12:00N 53°54' E 009°09'1 2.7
2017-Jun-24 11:30N 53°53' E 009°07'0 0.5
2017-Jun-24 10:59N 53°53' E 009°06'0 0.0
2017-Jun-24 10:28N 53°53' E 009°06'0 0.0
2017-Jun-24 09:58N 53°53' E 009°06'0 0.0
2017-Jun-24 09:28N 53°53' E 009°06'0 0.0
2017-Jun-24 08:58N 53°53' E 009°06'0 0.0
2017-Jun-24 08:24N 53°53' E 009°06'0 0.0
2017-Jun-24 08:01N 53°53' E 009°06'5 9.3
2017-Jun-24 07:30N 53°51' E 008°59'612.8
2017-Jun-24 07:01N 53°50' E 008°48'510.3
2017-Jun-24 06:30N 53°54' E 008°42'611.7
2017-Jun-24 06:00N 53°58' E 008°34'612.7
2017-Jun-24 05:30N 53°59' E 008°24'713.6
2017-Jun-24 05:00N 53°60' E 008°12'714.2
2017-Jun-24 04:30N 53°58' E 008°00'713.5
2017-Jun-24 04:00N 53°53' E 007°53'613.0
2017-Jun-24 03:30N 53°51' E 008°03'816.4
2017-Jun-24 03:00N 53°45' E 008°13'816.8
2017-Jun-24 02:30N 53°39' E 008°24'611.2
2017-Jun-24 01:59N 53°35' E 008°31'0 0.2
2017-Jun-24 01:28N 53°35' E 008°31'0 0.0
2017-Jun-24 00:58N 53°35' E 008°31'0 0.0
2017-Jun-24 00:28N 53°35' E 008°31'0 0.0
2017-Jun-23 23:58N 53°35' E 008°31'0 0.0
2017-Jun-23 23:27N 53°35' E 008°31'0 0.0
2017-Jun-23 23:00N 53°35' E 008°31'0 0.0
2017-Jun-23 22:30N 53°35' E 008°31'0 0.0
2017-Jun-23 22:00N 53°35' E 008°31'0 0.0
2017-Jun-23 21:30N 53°35' E 008°31'0 0.0
2017-Jun-23 20:59N 53°35' E 008°31'0 0.0
2017-Jun-23 20:29N 53°35' E 008°31'0 0.0
2017-Jun-23 19:59N 53°35' E 008°31'0 0.0
2017-Jun-23 19:29N 53°35' E 008°31'0 0.0
2017-Jun-23 18:59N 53°35' E 008°31'0 0.0
2017-Jun-23 18:28N 53°35' E 008°31'0 0.0
2017-Jun-23 17:58N 53°35' E 008°31'0 0.0
2017-Jun-23 17:28N 53°35' E 008°31'0 0.0
2017-Jun-23 16:58N 53°35' E 008°31'0 0.0
2017-Jun-23 16:30N 53°35' E 008°31'0 0.0
2017-Jun-23 16:00N 53°35' E 008°31'0 0.0
2017-Jun-23 15:30N 53°35' E 008°31'0 0.0
2017-Jun-23 15:00N 53°35' E 008°31'0 0.0
2017-Jun-23 13:59N 53°35' E 008°31'0 0.0
2017-Jun-23 13:29N 53°35' E 008°31'0 0.0
2017-Jun-23 12:59N 53°35' E 008°31'0 0.0
2017-Jun-23 12:29N 53°35' E 008°31'0 0.0
2017-Jun-23 11:59N 53°35' E 008°31'0 0.0
2017-Jun-23 11:28N 53°35' E 008°31'0 0.1
2017-Jun-23 10:58N 53°35' E 008°32'0 0.0
2017-Jun-23 10:28N 53°35' E 008°32'0 0.0
2017-Jun-23 09:58N 53°35' E 008°32'0 0.0
2017-Jun-23 09:30N 53°35' E 008°32'0 0.0
2017-Jun-23 09:00N 53°35' E 008°32'0 0.0
2017-Jun-23 08:27N 53°35' E 008°32'0 0.0
2017-Jun-23 08:00N 53°35' E 008°32'0 0.0
2017-Jun-23 07:30N 53°35' E 008°32'0 0.0
2017-Jun-23 06:59N 53°35' E 008°32'0 0.1
2017-Jun-23 06:29N 53°35' E 008°31'0 0.0
2017-Jun-23 05:59N 53°35' E 008°31'0 0.0
2017-Jun-23 05:30N 53°35' E 008°31'0 0.0
2017-Jun-23 05:00N 53°35' E 008°31'2 3.6
2017-Jun-23 04:30N 53°37' E 008°29'611.8
2017-Jun-23 04:00N 53°41' E 008°22'612.1
2017-Jun-23 03:30N 53°44' E 008°14'611.9
2017-Jun-23 03:00N 53°49' E 008°07'612.9
2017-Jun-23 02:30N 53°51' E 007°57'6 6.7
2017-Jun-23 01:40N 53°55' E 007°50'0 0.5
2017-Jun-23 01:28N 53°55' E 007°50'0 0.0
2017-Jun-23 00:58N 53°55' E 007°50'0 0.0
2017-Jun-22 22:45N 53°55' E 007°50'0 0.0
2017-Jun-22 22:24N 53°55' E 007°50'0 0.0
2017-Jun-22 22:00N 53°55' E 007°50'0 0.2
2017-Jun-22 21:21N 53°55' E 007°50'0 0.0
2017-Jun-22 20:54N 53°55' E 007°50'0 0.0
2017-Jun-22 19:54N 53°55' E 007°50'0 0.0
2017-Jun-22 19:30N 53°55' E 007°50'0 0.0
2017-Jun-22 18:59N 53°55' E 007°50'0 0.0
2017-Jun-22 18:29N 53°55' E 007°50'0 0.0
2017-Jun-22 17:59N 53°55' E 007°50'0 0.1
2017-Jun-22 17:29N 53°55' E 007°50'0 0.0
2017-Jun-22 16:58N 53°55' E 007°50'0 0.2
2017-Jun-22 16:28N 53°55' E 007°50'0 0.1
2017-Jun-22 15:58N 53°55' E 007°50'0 0.1
2017-Jun-22 12:57N 53°55' E 007°50'0 0.1
2017-Jun-22 12:30N 53°55' E 007°50'0 0.0
2017-Jun-22 11:56N 53°55' E 007°50'0 0.0
2017-Jun-22 11:29N 53°55' E 007°50'0 0.0
2017-Jun-22 10:59N 53°55' E 007°50'0 0.0
2017-Jun-22 10:29N 53°55' E 007°50'0 0.1
2017-Jun-22 09:58N 53°55' E 007°50'0 0.0
2017-Jun-22 09:22N 53°55' E 007°50'0 0.2
2017-Jun-22 08:10N 53°55' E 007°50'0 0.5
2017-Jun-22 07:58N 53°55' E 007°50'0 0.0
2017-Jun-22 07:30N 53°55' E 007°50'0 0.0
2017-Jun-22 06:57N 53°55' E 007°50'0 0.0
2017-Jun-22 06:30N 53°55' E 007°50'0 0.0
2017-Jun-22 06:00N 53°55' E 007°50'0 0.0
2017-Jun-22 05:30N 53°55' E 007°50'0 0.0
2017-Jun-22 04:59N 53°55' E 007°50'0 0.3
2017-Jun-22 04:29N 53°55' E 007°50'0 0.2
2017-Jun-22 03:59N 53°55' E 007°50'0 0.0
2017-Jun-22 03:29N 53°55' E 007°50'0 0.0
2017-Jun-22 02:49N 53°55' E 007°50'0 0.0
2017-Jun-22 02:28N 53°55' E 007°50'0 0.0
2017-Jun-22 01:55N 53°55' E 007°50'0 0.0
2017-Jun-22 01:25N 53°55' E 007°50'0 0.0
2017-Jun-22 00:58N 53°55' E 007°50'0 0.0
2017-Jun-22 00:30N 53°55' E 007°50'0 0.0
2017-Jun-21 23:57N 53°55' E 007°50'0 0.0
2017-Jun-21 23:30N 53°55' E 007°50'0 0.0
2017-Jun-21 22:57N 53°55' E 007°50'0 0.0
2017-Jun-21 22:27N 53°55' E 007°50'0 0.0
2017-Jun-21 21:47N 53°55' E 007°50'0 0.2
2017-Jun-21 21:23N 53°55' E 007°50'0 0.2
2017-Jun-21 20:59N 53°55' E 007°50'0 0.0
2017-Jun-21 20:29N 53°55' E 007°50'0 0.0
2017-Jun-21 19:55N 53°55' E 007°50'0 0.0
2017-Jun-21 19:28N 53°55' E 007°50'0 0.0
2017-Jun-21 16:24N 53°55' E 007°50'0 0.1
2017-Jun-21 15:42N 53°55' E 007°50'0 0.0
2017-Jun-21 15:23N 53°55' E 007°50'7 1.7
2017-Jun-21 11:11N 54°01' E 007°56'315.2
2017-Jun-21 11:00N 54°01' E 008°01'714.8
2017-Jun-21 10:30N 54°00' E 008°13'714.6
2017-Jun-21 10:00N 53°59' E 008°26'715.0
2017-Jun-21 09:31N 53°57' E 008°38'612.8
2017-Jun-21 09:00N 53°52' E 008°44'611.6
2017-Jun-21 08:30N 53°51' E 008°54'612.1
2017-Jun-21 08:00N 53°52' E 009°04'3 6.6
2017-Jun-21 07:30N 53°54' E 009°09'0 0.0
2017-Jun-21 07:00N 53°54' E 009°09'1 1.2
2017-Jun-21 06:30N 53°54' E 009°09'1 1.3
2017-Jun-21 06:00N 53°54' E 009°10'3 5.0
2017-Jun-21 05:30N 53°56' E 009°13'3 6.6
2017-Jun-21 05:00N 53°59' E 009°17'3 6.8
2017-Jun-21 04:30N 54°02' E 009°18'24 5.3
2017-Jun-21 00:01N 54°20' E 009°45'0 6.7
2017-Jun-20 23:57N 54°21' E 009°45'3 6.7
2017-Jun-20 23:29N 54°22' E 009°50'3 6.7
2017-Jun-20 23:00N 54°21' E 009°55'3 6.4
2017-Jun-20 22:30N 54°21' E 010°01'4 6.4
2017-Jun-20 21:53N 54°22' E 010°07'1 2.0
2017-Jun-20 21:30N 54°22' E 010°09'0 0.0
2017-Jun-20 21:01N 54°22' E 010°09'1 2.5
2017-Jun-20 20:31N 54°22' E 010°11'5 9.4
2017-Jun-20 20:00N 54°27' E 010°14'710.7
2017-Jun-20 19:21N 54°31' E 010°23'3 8.1
2017-Jun-20 19:00N 54°34' E 010°25'0 0.3
2017-Jun-20 18:24N 54°34' E 010°25'1 0.1
2017-Jun-20 05:37N 54°33' E 010°27'1 7.4
2017-Jun-20 05:31N 54°33' E 010°28'611.1
2017-Jun-20 05:00N 54°35' E 010°37'613.0
2017-Jun-20 04:30N 54°39' E 010°46'612.0
2017-Jun-20 04:00N 54°44' E 010°52'612.7
2017-Jun-20 03:30N 54°50' E 010°52'612.2
2017-Jun-20 03:01N 54°56' E 010°55'612.2
2017-Jun-20 02:30N 55°01' E 011°01'713.5
2017-Jun-20 01:59N 55°08' E 011°02'612.3
2017-Jun-20 01:30N 55°14' E 011°06'712.8
2017-Jun-20 00:58N 55°20' E 011°02'73 9.9
2017-Jun-19 17:39N 56°25' E 012°02'313.8
2017-Jun-19 17:27N 56°22' E 012°03'713.1
2017-Jun-19 16:56N 56°16' E 012°10'614.1
2017-Jun-19 16:30N 56°13' E 012°19'714.2
2017-Jun-19 16:00N 56°09' E 012°29'714.6
2017-Jun-19 15:30N 56°04' E 012°39'2 4.7
2017-Jun-19 15:00N 56°02' E 012°42'0 0.1
2017-Jun-19 13:59N 56°02' E 012°42'0 0.0
2017-Jun-19 13:29N 56°02' E 012°42'0 0.0
2017-Jun-19 12:59N 56°02' E 012°42'0 0.0
2017-Jun-19 12:29N 56°02' E 012°42'0 0.0
2017-Jun-19 11:58N 56°02' E 012°42'0 0.0
2017-Jun-19 11:28N 56°02' E 012°42'0 0.0
2017-Jun-19 10:55N 56°02' E 012°42'0 0.0
2017-Jun-19 10:28N 56°02' E 012°42'0 0.0
2017-Jun-19 10:00N 56°02' E 012°42'0 0.0
2017-Jun-19 09:30N 56°02' E 012°42'0 0.0
2017-Jun-19 09:00N 56°02' E 012°42'0 0.0
2017-Jun-19 08:30N 56°02' E 012°42'0 0.0
2017-Jun-19 08:00N 56°02' E 012°42'0 0.0
2017-Jun-19 07:29N 56°02' E 012°42'0 0.0
2017-Jun-19 06:59N 56°02' E 012°42'0 0.0
2017-Jun-19 06:29N 56°02' E 012°42'0 0.0
2017-Jun-19 05:59N 56°02' E 012°42'0 0.0
2017-Jun-19 05:29N 56°02' E 012°42'0 0.0
2017-Jun-19 04:58N 56°02' E 012°42'0 0.0
2017-Jun-19 04:28N 56°02' E 012°42'0 0.0
2017-Jun-19 03:58N 56°02' E 012°42'0 0.0
2017-Jun-19 03:28N 56°02' E 012°42'0 0.1
2017-Jun-19 03:00N 56°02' E 012°41'0 0.0
2017-Jun-19 02:30N 56°02' E 012°41'0 0.0
2017-Jun-19 02:00N 56°02' E 012°41'0 0.0
2017-Jun-19 01:30N 56°02' E 012°41'0 0.0
2017-Jun-19 01:00N 56°02' E 012°41'0 0.0
2017-Jun-19 00:29N 56°02' E 012°41'0 0.0
2017-Jun-18 23:59N 56°02' E 012°41'0 0.0
2017-Jun-18 23:29N 56°02' E 012°41'0 0.0
2017-Jun-18 22:59N 56°02' E 012°41'0 0.0
2017-Jun-18 22:28N 56°02' E 012°41'0 0.0
2017-Jun-18 21:58N 56°02' E 012°41'0 0.0
2017-Jun-18 21:28N 56°02' E 012°41'0 0.0
2017-Jun-18 20:58N 56°02' E 012°41'0 0.0
2017-Jun-18 20:25N 56°02' E 012°41'0 0.0
2017-Jun-18 20:00N 56°02' E 012°41'0 0.0
2017-Jun-18 19:30N 56°02' E 012°41'0 0.0
2017-Jun-18 19:00N 56°02' E 012°41'0 0.0
2017-Jun-18 18:24N 56°02' E 012°41'0 0.0
2017-Jun-18 18:00N 56°02' E 012°41'0 0.0
2017-Jun-18 17:29N 56°02' E 012°41'0 0.0
2017-Jun-18 16:59N 56°02' E 012°41'  

Dump ship's entire track history